sensor_id;sensor_type;location;lat;lon;timestamp;pressure;altitude;pressure_sealevel;temperature;humidity
3748;BME280;1889;50.058;8.688;2023-04-10T00:02:03;100926.83;;;11.59;48.94
3748;BME280;1889;50.058;8.688;2023-04-10T00:04:32;100933.94;;;11.50;49.16
3748;BME280;1889;50.058;8.688;2023-04-10T00:07:02;100936.14;;;11.47;49.12
3748;BME280;1889;50.058;8.688;2023-04-10T00:09:31;100945.37;;;11.45;49.23
3748;BME280;1889;50.058;8.688;2023-04-10T00:12:01;100947.62;;;11.41;49.36
3748;BME280;1889;50.058;8.688;2023-04-10T00:14:30;100950.76;;;11.33;49.50
3748;BME280;1889;50.058;8.688;2023-04-10T00:17:00;100942.86;;;11.32;49.43
3748;BME280;1889;50.058;8.688;2023-04-10T00:19:29;100944.56;;;11.36;49.46
3748;BME280;1889;50.058;8.688;2023-04-10T00:21:58;100949.89;;;11.31;49.50
3748;BME280;1889;50.058;8.688;2023-04-10T00:24:28;100949.50;;;11.26;49.67
3748;BME280;1889;50.058;8.688;2023-04-10T00:26:57;100946.43;;;11.23;49.77
3748;BME280;1889;50.058;8.688;2023-04-10T00:29:26;100947.75;;;11.22;49.70
3748;BME280;1889;50.058;8.688;2023-04-10T00:31:56;100945.56;;;11.21;49.69
3748;BME280;1889;50.058;8.688;2023-04-10T00:34:25;100945.11;;;11.23;49.96
3748;BME280;1889;50.058;8.688;2023-04-10T00:36:55;100942.05;;;11.21;50.09
3748;BME280;1889;50.058;8.688;2023-04-10T00:39:24;100945.61;;;11.14;50.12
3748;BME280;1889;50.058;8.688;2023-04-10T00:41:53;100944.73;;;11.18;50.07
3748;BME280;1889;50.058;8.688;2023-04-10T00:44:23;100943.41;;;11.18;49.95
3748;BME280;1889;50.058;8.688;2023-04-10T00:46:52;100942.98;;;11.12;49.94
3748;BME280;1889;50.058;8.688;2023-04-10T00:49:22;100942.09;;;11.18;50.01
3748;BME280;1889;50.058;8.688;2023-04-10T00:51:51;100939.02;;;11.15;50.12
3748;BME280;1889;50.058;8.688;2023-04-10T00:54:22;100939.02;;;11.15;50.12
3748;BME280;1889;50.058;8.688;2023-04-10T00:56:51;100935.51;;;11.16;49.99
3748;BME280;1889;50.058;8.688;2023-04-10T00:59:21;100938.59;;;11.13;50.03
3748;BME280;1889;50.058;8.688;2023-04-10T01:01:50;100933.37;;;11.08;49.92
3748;BME280;1889;50.058;8.688;2023-04-10T01:04:20;100931.67;;;10.99;49.82
3748;BME280;1889;50.058;8.688;2023-04-10T01:07:01;100934.40;;;10.84;50.06
3748;BME280;1889;50.058;8.688;2023-04-10T01:12:42;100938.83;;;10.75;50.28
3748;BME280;1889;50.058;8.688;2023-04-10T01:15:12;100937.91;;;10.80;50.40
3748;BME280;1889;50.058;8.688;2023-04-10T01:18:01;100942.86;;;10.56;50.70
3748;BME280;1889;50.058;8.688;2023-04-10T01:20:34;100944.28;;;10.37;51.00
3748;BME280;1889;50.058;8.688;2023-04-10T01:25:55;100949.58;;;10.08;51.60
3748;BME280;1889;50.058;8.688;2023-04-10T01:31:00;100941.20;;;10.36;50.52
3748;BME280;1889;50.058;8.688;2023-04-10T01:33:33;100945.63;;;10.29;50.83
3748;BME280;1889;50.058;8.688;2023-04-10T01:36:04;100945.67;;;9.94;51.68
3748;BME280;1889;50.058;8.688;2023-04-10T01:38:35;100951.82;;;9.87;51.88
3748;BME280;1889;50.058;8.688;2023-04-10T01:41:06;100956.66;;;9.60;52.51
3748;BME280;1889;50.058;8.688;2023-04-10T01:43:37;100947.88;;;9.75;52.16
3748;BME280;1889;50.058;8.688;2023-04-10T01:46:07;100946.55;;;9.93;51.92
3748;BME280;1889;50.058;8.688;2023-04-10T01:48:38;100944.80;;;9.84;52.14
3748;BME280;1889;50.058;8.688;2023-04-10T01:51:09;100950.08;;;9.34;53.38
3748;BME280;1889;50.058;8.688;2023-04-10T01:53:39;100941.75;;;9.41;53.38
3748;BME280;1889;50.058;8.688;2023-04-10T01:56:09;100939.14;;;9.73;52.52
3748;BME280;1889;50.058;8.688;2023-04-10T01:58:39;100939.98;;;9.85;52.35
3748;BME280;1889;50.058;8.688;2023-04-10T02:01:08;100934.27;;;9.92;52.04
3748;BME280;1889;50.058;8.688;2023-04-10T02:03:38;100928.97;;;10.06;51.77
3748;BME280;1889;50.058;8.688;2023-04-10T02:08:52;100925.47;;;10.11;51.57
3748;BME280;1889;50.058;8.688;2023-04-10T02:11:52;100921.09;;;10.18;51.53
3748;BME280;1889;50.058;8.688;2023-04-10T02:14:00;100922.84;;;10.11;51.60
3748;BME280;1889;50.058;8.688;2023-04-10T02:16:31;100919.74;;;10.15;51.39
3748;BME280;1889;50.058;8.688;2023-04-10T02:19:01;100916.73;;;10.03;51.67
3748;BME280;1889;50.058;8.688;2023-04-10T02:21:32;100914.95;;;10.10;51.65
3748;BME280;1889;50.058;8.688;2023-04-10T02:24:02;100905.77;;;10.05;51.68
3748;BME280;1889;50.058;8.688;2023-04-10T02:26:45;100903.14;;;10.01;51.94
3748;BME280;1889;50.058;8.688;2023-04-10T02:29:15;100901.36;;;10.13;51.72
3748;BME280;1889;50.058;8.688;2023-04-10T02:31:45;100908.78;;;10.15;51.72
3748;BME280;1889;50.058;8.688;2023-04-10T02:34:14;100904.42;;;10.07;51.89
3748;BME280;1889;50.058;8.688;2023-04-10T02:36:43;100907.03;;;10.29;51.52
3748;BME280;1889;50.058;8.688;2023-04-10T02:39:13;100907.03;;;10.25;51.64
3748;BME280;1889;50.058;8.688;2023-04-10T02:41:42;100903.56;;;10.20;51.71
3748;BME280;1889;50.058;8.688;2023-04-10T02:44:12;100903.97;;;10.25;51.61
3748;BME280;1889;50.058;8.688;2023-04-10T02:46:42;100901.80;;;10.13;51.92
3748;BME280;1889;50.058;8.688;2023-04-10T02:49:11;100897.83;;;10.14;51.89
3748;BME280;1889;50.058;8.688;2023-04-10T02:51:40;100901.77;;;10.16;52.00
3748;BME280;1889;50.058;8.688;2023-04-10T02:54:10;100903.98;;;10.06;52.21
3748;BME280;1889;50.058;8.688;2023-04-10T02:56:39;100901.80;;;10.11;52.16
3748;BME280;1889;50.058;8.688;2023-04-10T02:59:08;100899.17;;;10.08;52.19
3748;BME280;1889;50.058;8.688;2023-04-10T03:01:38;100908.37;;;10.13;52.19
3748;BME280;1889;50.058;8.688;2023-04-10T03:04:07;100898.73;;;10.13;52.05
3748;BME280;1889;50.058;8.688;2023-04-10T03:06:37;100900.48;;;10.08;52.35
3748;BME280;1889;50.058;8.688;2023-04-10T03:09:06;100900.05;;;10.18;52.30
3748;BME280;1889;50.058;8.688;2023-04-10T03:11:35;100896.54;;;10.10;52.49
3748;BME280;1889;50.058;8.688;2023-04-10T03:14:05;100901.36;;;10.09;52.59
3748;BME280;1889;50.058;8.688;2023-04-10T03:16:34;100893.91;;;10.11;52.49
3748;BME280;1889;50.058;8.688;2023-04-10T03:19:03;100890.84;;;10.10;52.39
3748;BME280;1889;50.058;8.688;2023-04-10T03:21:33;100888.22;;;10.21;52.23
3748;BME280;1889;50.058;8.688;2023-04-10T03:24:02;100884.23;;;10.22;52.11
3748;BME280;1889;50.058;8.688;2023-04-10T03:26:31;100888.66;;;10.11;52.41
3748;BME280;1889;50.058;8.688;2023-04-10T03:29:01;100884.67;;;10.23;52.00
3748;BME280;1889;50.058;8.688;2023-04-10T03:31:30;100880.73;;;10.14;52.13
3748;BME280;1889;50.058;8.688;2023-04-10T03:34:00;100882.52;;;10.20;51.98
3748;BME280;1889;50.058;8.688;2023-04-10T03:36:29;100874.12;;;10.31;51.71
3748;BME280;1889;50.058;8.688;2023-04-10T03:38:58;100880.73;;;10.22;52.04
3748;BME280;1889;50.058;8.688;2023-04-10T03:41:28;100879.88;;;10.06;52.39
3748;BME280;1889;50.058;8.688;2023-04-10T03:43:58;100875.47;;;10.23;52.04
3748;BME280;1889;50.058;8.688;2023-04-10T03:46:29;100871.55;;;10.11;52.39
3748;BME280;1889;50.058;8.688;2023-04-10T03:48:58;100877.74;;;9.90;52.81
3748;BME280;1889;50.058;8.688;2023-04-10T03:51:27;100872.46;;;10.04;52.51
3748;BME280;1889;50.058;8.688;2023-04-10T03:53:57;100876.05;;;9.71;53.40
3748;BME280;1889;50.058;8.688;2023-04-10T03:56:26;100872.50;;;9.83;53.14
3748;BME280;1889;50.058;8.688;2023-04-10T03:58:55;100874.27;;;9.88;52.96
3748;BME280;1889;50.058;8.688;2023-04-10T04:01:25;100869.42;;;9.91;52.95
3748;BME280;1889;50.058;8.688;2023-04-10T04:03:54;100872.05;;;9.97;52.86
3748;BME280;1889;50.058;8.688;2023-04-10T04:06:23;100872.52;;;9.89;53.03
3748;BME280;1889;50.058;8.688;2023-04-10T04:08:54;100869.41;;;9.89;53.07
3748;BME280;1889;50.058;8.688;2023-04-10T04:11:23;100866.38;;;9.87;53.17
3748;BME280;1889;50.058;8.688;2023-04-10T04:13:52;100865.03;;;9.93;52.93
3748;BME280;1889;50.058;8.688;2023-04-10T04:16:22;100872.02;;;10.02;52.80
3748;BME280;1889;50.058;8.688;2023-04-10T04:18:51;100870.73;;;9.91;52.97
3748;BME280;1889;50.058;8.688;2023-04-10T04:21:20;100871.61;;;9.93;53.01
3748;BME280;1889;50.058;8.688;2023-04-10T04:23:50;100871.22;;;9.80;53.40
3748;BME280;1889;50.058;8.688;2023-04-10T04:26:19;100874.29;;;9.81;53.38
3748;BME280;1889;50.058;8.688;2023-04-10T04:28:49;100871.63;;;9.85;53.25
3748;BME280;1889;50.058;8.688;2023-04-10T04:31:18;100867.75;;;9.49;54.18
3748;BME280;1889;50.058;8.688;2023-04-10T04:33:48;100872.10;;;9.65;54.02
3748;BME280;1889;50.058;8.688;2023-04-10T04:36:17;100873.88;;;9.62;54.01
3748;BME280;1889;50.058;8.688;2023-04-10T04:38:46;100876.93;;;9.70;53.90
3748;BME280;1889;50.058;8.688;2023-04-10T04:41:16;100871.66;;;9.81;53.55
3748;BME280;1889;50.058;8.688;2023-04-10T04:43:45;100881.69;;;9.92;53.37
3748;BME280;1889;50.058;8.688;2023-04-10T04:46:19;100876.89;;;9.85;53.36
3748;BME280;1889;50.058;8.688;2023-04-10T04:48:48;100873.41;;;9.76;53.62
3748;BME280;1889;50.058;8.688;2023-04-10T04:51:17;100878.62;;;9.89;53.28
3748;BME280;1889;50.058;8.688;2023-04-10T04:53:47;100878.20;;;9.84;53.39
3748;BME280;1889;50.058;8.688;2023-04-10T04:56:16;100883.52;;;9.02;55.87
3748;BME280;1889;50.058;8.688;2023-04-10T04:58:45;100881.34;;;9.42;55.02
3748;BME280;1889;50.058;8.688;2023-04-10T05:01:15;100880.45;;;9.51;54.59
3748;BME280;1889;50.058;8.688;2023-04-10T05:03:44;100879.09;;;9.74;54.08
3748;BME280;1889;50.058;8.688;2023-04-10T05:06:13;100879.55;;;9.69;54.24
3748;BME280;1889;50.058;8.688;2023-04-10T05:08:43;100870.80;;;9.73;54.21
3748;BME280;1889;50.058;8.688;2023-04-10T05:11:12;100879.54;;;9.76;54.23
3748;BME280;1889;50.058;8.688;2023-04-10T05:13:41;100873.87;;;9.71;54.50
3748;BME280;1889;50.058;8.688;2023-04-10T05:16:11;100873.38;;;9.82;54.20
3748;BME280;1889;50.058;8.688;2023-04-10T05:18:40;100872.97;;;9.75;54.48
3748;BME280;1889;50.058;8.688;2023-04-10T05:21:09;100873.87;;;9.71;54.71
3748;BME280;1889;50.058;8.688;2023-04-10T05:23:39;100883.95;;;9.73;54.67
3748;BME280;1889;50.058;8.688;2023-04-10T05:26:08;100878.66;;;9.79;54.52
3748;BME280;1889;50.058;8.688;2023-04-10T05:28:37;100878.19;;;9.94;54.10
3748;BME280;1889;50.058;8.688;2023-04-10T05:31:07;100879.95;;;9.85;54.33
3748;BME280;1889;50.058;8.688;2023-04-10T05:33:36;100881.70;;;9.84;54.48
3748;BME280;1889;50.058;8.688;2023-04-10T05:36:05;100881.27;;;9.85;54.56
3748;BME280;1889;50.058;8.688;2023-04-10T05:38:35;100890.89;;;9.95;54.39
3748;BME280;1889;50.058;8.688;2023-04-10T05:41:04;100893.06;;;10.02;54.11
3748;BME280;1889;50.058;8.688;2023-04-10T05:43:33;100895.20;;;10.16;53.69
3748;BME280;1889;50.058;8.688;2023-04-10T05:46:03;100894.78;;;10.06;54.10
3748;BME280;1889;50.058;8.688;2023-04-10T05:48:33;100898.73;;;10.07;54.26
3748;BME280;1889;50.058;8.688;2023-04-10T05:51:02;100896.12;;;10.04;54.48
3748;BME280;1889;50.058;8.688;2023-04-10T05:53:31;100902.68;;;10.19;54.25
3748;BME280;1889;50.058;8.688;2023-04-10T05:56:01;100902.22;;;10.23;54.16
3748;BME280;1889;50.058;8.688;2023-04-10T05:58:30;100900.61;;;9.44;56.04
3748;BME280;1889;50.058;8.688;2023-04-10T06:00:59;100902.77;;;9.80;55.45
3748;BME280;1889;50.058;8.688;2023-04-10T06:03:29;100898.76;;;10.03;54.80
3748;BME280;1889;50.058;8.688;2023-04-10T06:05:59;100902.67;;;10.10;54.56
3748;BME280;1889;50.058;8.688;2023-04-10T06:08:29;100896.08;;;10.24;54.25
3748;BME280;1889;50.058;8.688;2023-04-10T06:10:59;100900.90;;;10.26;54.18
3748;BME280;1889;50.058;8.688;2023-04-10T06:13:28;100899.63;;;10.03;54.74
3748;BME280;1889;50.058;8.688;2023-04-10T06:15:57;100898.27;;;10.24;54.33
3748;BME280;1889;50.058;8.688;2023-04-10T06:18:27;100896.48;;;10.32;54.16
3748;BME280;1889;50.058;8.688;2023-04-10T06:20:56;100891.14;;;10.51;53.71
3748;BME280;1889;50.058;8.688;2023-04-10T06:23:27;100889.86;;;10.40;54.03
3748;BME280;1889;50.058;8.688;2023-04-10T06:25:57;100895.92;;;10.56;53.68
3748;BME280;1889;50.058;8.688;2023-04-10T06:28:26;100890.22;;;10.61;53.58
3748;BME280;1889;50.058;8.688;2023-04-10T06:30:55;100891.05;;;10.66;53.48
3748;BME280;1889;50.058;8.688;2023-04-10T06:33:25;100891.45;;;10.71;53.51
3748;BME280;1889;50.058;8.688;2023-04-10T06:35:54;100876.97;;;10.71;53.68
3748;BME280;1889;50.058;8.688;2023-04-10T06:38:24;100878.66;;;10.86;53.30
3748;BME280;1889;50.058;8.688;2023-04-10T06:40:53;100881.63;;;11.01;52.77
3748;BME280;1889;50.058;8.688;2023-04-10T06:43:23;100880.41;;;10.86;53.18
3748;BME280;1889;50.058;8.688;2023-04-10T06:45:52;100880.31;;;10.96;53.09
3748;BME280;1889;50.058;8.688;2023-04-10T06:48:21;100882.45;;;11.04;52.84
3748;BME280;1889;50.058;8.688;2023-04-10T06:50:51;100878.77;;;10.65;53.85
3748;BME280;1889;50.058;8.688;2023-04-10T06:53:20;100886.90;;;10.98;53.37
3748;BME280;1889;50.058;8.688;2023-04-10T06:55:49;100882.39;;;11.12;52.92
3748;BME280;1889;50.058;8.688;2023-04-10T06:58:18;100884.66;;;11.03;53.35
3748;BME280;1889;50.058;8.688;2023-04-10T07:00:48;100884.16;;;11.12;53.11
3748;BME280;1889;50.058;8.688;2023-04-10T07:03:17;100877.47;;;11.27;52.75
3748;BME280;1889;50.058;8.688;2023-04-10T07:05:47;100888.09;;;11.15;52.92
3748;BME280;1889;50.058;8.688;2023-04-10T07:08:16;100883.58;;;11.29;52.88
3748;BME280;1889;50.058;8.688;2023-04-10T07:10:45;100880.55;;;11.26;52.83
3748;BME280;1889;50.058;8.688;2023-04-10T07:13:15;100874.11;;;11.03;53.55
3748;BME280;1889;50.058;8.688;2023-04-10T07:15:44;100870.33;;;11.36;52.84
3748;BME280;1889;50.058;8.688;2023-04-10T07:18:13;100871.34;;;11.68;52.12
3748;BME280;1889;50.058;8.688;2023-04-10T07:20:43;100875.50;;;11.50;52.61
3748;BME280;1889;50.058;8.688;2023-04-10T07:23:12;100871.85;;;11.62;52.59
3748;BME280;1889;50.058;8.688;2023-04-10T07:25:42;100870.45;;;11.75;52.12
3748;BME280;1889;50.058;8.688;2023-04-10T07:28:11;100872.42;;;11.94;51.46
3748;BME280;1889;50.058;8.688;2023-04-10T07:30:41;100875.73;;;11.75;52.04
3748;BME280;1889;50.058;8.688;2023-04-10T07:33:19;100874.61;;;11.96;51.83
3748;BME280;1889;50.058;8.688;2023-04-10T07:35:48;100866.41;;;12.20;51.37
3748;BME280;1889;50.058;8.688;2023-04-10T07:38:17;100859.94;;;12.08;51.80
3748;BME280;1889;50.058;8.688;2023-04-10T07:40:48;100856.02;;;12.07;51.76
3748;BME280;1889;50.058;8.688;2023-04-10T07:43:17;100853.87;;;12.36;51.13
3748;BME280;1889;50.058;8.688;2023-04-10T07:45:47;100854.34;;;12.34;50.71
3748;BME280;1889;50.058;8.688;2023-04-10T07:48:16;100859.98;;;12.07;51.18
3748;BME280;1889;50.058;8.688;2023-04-10T07:50:45;100858.17;;;12.09;51.52
3748;BME280;1889;50.058;8.688;2023-04-10T07:53:15;100860.80;;;12.10;51.40
3748;BME280;1889;50.058;8.688;2023-04-10T07:55:45;100854.89;;;12.24;51.20
3748;BME280;1889;50.058;8.688;2023-04-10T07:58:16;100852.22;;;12.60;50.68
3748;BME280;1889;50.058;8.688;2023-04-10T08:00:46;100852.10;;;12.38;49.76
3748;BME280;1889;50.058;8.688;2023-04-10T08:03:15;100850.14;;;12.52;50.29
3748;BME280;1889;50.058;8.688;2023-04-10T08:05:44;100850.14;;;12.52;50.29
3748;BME280;1889;50.058;8.688;2023-04-10T08:08:15;100844.70;;;12.65;50.33
3748;BME280;1889;50.058;8.688;2023-04-10T08:10:44;100841.50;;;12.73;49.84
3748;BME280;1889;50.058;8.688;2023-04-10T08:13:13;100835.81;;;12.69;50.12
3748;BME280;1889;50.058;8.688;2023-04-10T08:15:43;100832.61;;;12.77;49.64
3748;BME280;1889;50.058;8.688;2023-04-10T08:18:12;100822.34;;;12.87;49.53
3748;BME280;1889;50.058;8.688;2023-04-10T08:20:42;100825.71;;;12.96;49.34
3748;BME280;1889;50.058;8.688;2023-04-10T08:23:11;100828.55;;;13.11;49.00
3748;BME280;1889;50.058;8.688;2023-04-10T08:25:40;100820.92;;;13.21;48.54
3748;BME280;1889;50.058;8.688;2023-04-10T08:28:10;100820.92;;;13.21;48.54
3748;BME280;1889;50.058;8.688;2023-04-10T08:30:39;100812.45;;;13.26;48.09
3748;BME280;1889;50.058;8.688;2023-04-10T08:33:08;100812.45;;;13.26;48.09
3748;BME280;1889;50.058;8.688;2023-04-10T08:35:37;100807.36;;;13.40;48.12
3748;BME280;1889;50.058;8.688;2023-04-10T08:38:07;100789.83;;;13.58;47.44
3748;BME280;1889;50.058;8.688;2023-04-10T08:40:37;100789.83;;;13.58;47.44
3748;BME280;1889;50.058;8.688;2023-04-10T08:43:06;100806.55;;;13.60;47.64
3748;BME280;1889;50.058;8.688;2023-04-10T08:45:35;100792.22;;;13.48;46.86
3748;BME280;1889;50.058;8.688;2023-04-10T08:48:05;100788.70;;;13.47;47.17
3748;BME280;1889;50.058;8.688;2023-04-10T08:50:40;100783.24;;;13.56;47.14
3748;BME280;1889;50.058;8.688;2023-04-10T08:53:10;100780.47;;;13.62;46.69
3748;BME280;1889;50.058;8.688;2023-04-10T08:55:40;100781.59;;;13.73;46.54
3748;BME280;1889;50.058;8.688;2023-04-10T08:58:10;100776.98;;;13.83;46.58
3748;BME280;1889;50.058;8.688;2023-04-10T09:00:40;100770.72;;;13.87;46.47
3748;BME280;1889;50.058;8.688;2023-04-10T09:03:10;100777.85;;;14.04;46.76
3748;BME280;1889;50.058;8.688;2023-04-10T09:05:41;100775.60;;;14.06;46.21
3748;BME280;1889;50.058;8.688;2023-04-10T09:08:10;100773.19;;;14.17;46.13
3748;BME280;1889;50.058;8.688;2023-04-10T09:10:40;100769.36;;;14.10;45.84
3748;BME280;1889;50.058;8.688;2023-04-10T09:13:09;100758.91;;;14.24;45.87
3748;BME280;1889;50.058;8.688;2023-04-10T09:15:57;100753.66;;;14.21;45.57
3748;BME280;1889;50.058;8.688;2023-04-10T09:18:46;100756.05;;;14.33;45.68
3748;BME280;1889;50.058;8.688;2023-04-10T09:21:20;100754.01;;;14.45;45.50
3748;BME280;1889;50.058;8.688;2023-04-10T09:23:58;100740.94;;;14.57;45.32
3748;BME280;1889;50.058;8.688;2023-04-10T09:26:26;100729.80;;;14.61;44.33
3748;BME280;1889;50.058;8.688;2023-04-10T09:29:05;100726.98;;;14.84;45.00
3748;BME280;1889;50.058;8.688;2023-04-10T09:31:37;100721.25;;;15.01;43.52
3748;BME280;1889;50.058;8.688;2023-04-10T09:34:14;100718.75;;;15.13;43.93
3748;BME280;1889;50.058;8.688;2023-04-10T09:36:40;100715.26;;;15.27;43.18
3748;BME280;1889;50.058;8.688;2023-04-10T09:39:10;100712.50;;;15.32;43.23
3748;BME280;1889;50.058;8.688;2023-04-10T09:41:53;100708.97;;;15.63;43.31
3748;BME280;1889;50.058;8.688;2023-04-10T09:44:34;100706.77;;;15.78;42.70
3748;BME280;1889;50.058;8.688;2023-04-10T09:47:18;100706.54;;;15.85;42.24
3748;BME280;1889;50.058;8.688;2023-04-10T09:49:51;100691.41;;;15.89;40.57
3748;BME280;1889;50.058;8.688;2023-04-10T09:52:23;100695.05;;;15.85;41.51
3748;BME280;1889;50.058;8.688;2023-04-10T09:54:57;100687.40;;;15.74;41.58
3748;BME280;1889;50.058;8.688;2023-04-10T09:57:28;100683.65;;;15.67;41.69
3748;BME280;1889;50.058;8.688;2023-04-10T10:00:00;100680.99;;;15.67;41.94
3748;BME280;1889;50.058;8.688;2023-04-10T10:02:30;100674.47;;;15.63;42.01
3748;BME280;1889;50.058;8.688;2023-04-10T10:05:00;100675.04;;;15.73;41.95
3748;BME280;1889;50.058;8.688;2023-04-10T10:07:29;100665.16;;;15.93;42.22
3748;BME280;1889;50.058;8.688;2023-04-10T10:10:00;100666.33;;;16.12;41.85
3748;BME280;1889;50.058;8.688;2023-04-10T10:15:37;100646.33;;;16.00;41.49
3748;BME280;1889;50.058;8.688;2023-04-10T10:18:26;100649.28;;;16.19;41.63
3748;BME280;1889;50.058;8.688;2023-04-10T10:20:54;100645.42;;;16.15;41.37
3748;BME280;1889;50.058;8.688;2023-04-10T10:23:25;100636.95;;;16.17;41.53
3748;BME280;1889;50.058;8.688;2023-04-10T10:25:55;100635.17;;;16.30;41.59
3748;BME280;1889;50.058;8.688;2023-04-10T10:28:28;100630.44;;;16.27;41.06
3748;BME280;1889;50.058;8.688;2023-04-10T10:30:59;100616.80;;;16.37;41.03
3748;BME280;1889;50.058;8.688;2023-04-10T10:33:29;100620.47;;;16.33;40.67
3748;BME280;1889;50.058;8.688;2023-04-10T10:36:02;100620.67;;;16.40;41.36
3748;BME280;1889;50.058;8.688;2023-04-10T10:38:32;100610.36;;;16.45;41.46
3748;BME280;1889;50.058;8.688;2023-04-10T10:41:11;100610.05;;;16.54;41.62
3748;BME280;1889;50.058;8.688;2023-04-10T10:46:51;100606.48;;;16.68;40.53
3748;BME280;1889;50.058;8.688;2023-04-10T10:49:21;100598.66;;;16.88;40.33
3748;BME280;1889;50.058;8.688;2023-04-10T10:51:50;100590.86;;;16.95;39.94
3748;BME280;1889;50.058;8.688;2023-04-10T10:54:34;100582.27;;;17.00;39.61
3748;BME280;1889;50.058;8.688;2023-04-10T10:57:03;100575.41;;;17.18;39.84
3748;BME280;1889;50.058;8.688;2023-04-10T11:02:20;100570.88;;;17.32;39.14
3748;BME280;1889;50.058;8.688;2023-04-10T11:04:49;100571.34;;;17.31;38.08
3748;BME280;1889;50.058;8.688;2023-04-10T11:07:18;100568.41;;;17.61;38.20
3748;BME280;1889;50.058;8.688;2023-04-10T11:09:50;100556.45;;;17.72;37.12
3748;BME280;1889;50.058;8.688;2023-04-10T11:12:22;100556.45;;;17.72;37.12
3748;BME280;1889;50.058;8.688;2023-04-10T11:15:00;100556.72;;;17.76;36.63
3748;BME280;1889;50.058;8.688;2023-04-10T11:17:51;100546.25;;;17.93;35.61
3748;BME280;1889;50.058;8.688;2023-04-10T11:20:21;100527.11;;;18.06;35.71
3748;BME280;1889;50.058;8.688;2023-04-10T11:23:08;100523.67;;;18.24;36.40
3748;BME280;1889;50.058;8.688;2023-04-10T11:25:51;100507.48;;;18.28;36.26
3748;BME280;1889;50.058;8.688;2023-04-10T11:31:21;100506.80;;;18.74;35.94
3748;BME280;1889;50.058;8.688;2023-04-10T11:34:02;100498.39;;;18.83;34.81
3748;BME280;1889;50.058;8.688;2023-04-10T11:36:34;100498.39;;;18.83;34.81
3748;BME280;1889;50.058;8.688;2023-04-10T11:39:07;100493.48;;;19.03;35.22
3748;BME280;1889;50.058;8.688;2023-04-10T11:41:39;100493.48;;;19.03;35.22
3748;BME280;1889;50.058;8.688;2023-04-10T11:44:11;100496.87;;;19.25;33.02
3748;BME280;1889;50.058;8.688;2023-04-10T11:46:42;100488.45;;;19.24;33.53
3748;BME280;1889;50.058;8.688;2023-04-10T11:49:19;100483.79;;;19.29;33.57
3748;BME280;1889;50.058;8.688;2023-04-10T11:51:49;100478.30;;;19.51;32.93
3748;BME280;1889;50.058;8.688;2023-04-10T11:54:23;100473.23;;;19.45;31.29
3748;BME280;1889;50.058;8.688;2023-04-10T11:56:58;100464.62;;;19.49;31.44
3748;BME280;1889;50.058;8.688;2023-04-10T11:59:29;100464.62;;;19.49;31.44
3748;BME280;1889;50.058;8.688;2023-04-10T12:02:12;100458.86;;;19.75;31.70
3748;BME280;1889;50.058;8.688;2023-04-10T12:04:43;100457.00;;;19.86;30.98
3748;BME280;1889;50.058;8.688;2023-04-10T12:07:13;100455.28;;;20.02;31.00
3748;BME280;1889;50.058;8.688;2023-04-10T12:09:42;100450.70;;;20.12;30.21
3748;BME280;1889;50.058;8.688;2023-04-10T12:12:11;100444.66;;;20.17;30.73
3748;BME280;1889;50.058;8.688;2023-04-10T12:14:42;100441.52;;;20.18;30.45
3748;BME280;1889;50.058;8.688;2023-04-10T12:17:12;100443.22;;;20.45;30.32
3748;BME280;1889;50.058;8.688;2023-04-10T12:19:41;100447.69;;;20.53;29.54
3748;BME280;1889;50.058;8.688;2023-04-10T12:22:11;100445.62;;;20.67;29.26
3748;BME280;1889;50.058;8.688;2023-04-10T12:24:51;100440.11;;;20.61;28.08
3748;BME280;1889;50.058;8.688;2023-04-10T12:27:25;100424.89;;;20.46;28.17
3748;BME280;1889;50.058;8.688;2023-04-10T12:29:57;100419.00;;;20.72;28.47
3748;BME280;1889;50.058;8.688;2023-04-10T12:32:26;100426.16;;;20.22;27.26
3748;BME280;1889;50.058;8.688;2023-04-10T12:34:57;100429.23;;;20.40;27.50
3748;BME280;1889;50.058;8.688;2023-04-10T12:37:49;100423.73;;;20.43;27.60
3748;BME280;1889;50.058;8.688;2023-04-10T12:40:19;100427.97;;;20.71;27.58
3748;BME280;1889;50.058;8.688;2023-04-10T12:42:49;100415.45;;;20.47;27.62
3748;BME280;1889;50.058;8.688;2023-04-10T12:45:18;100411.31;;;20.16;27.70
3748;BME280;1889;50.058;8.688;2023-04-10T12:47:48;100402.06;;;20.56;27.45
3748;BME280;1889;50.058;8.688;2023-04-10T12:50:20;100402.06;;;20.56;27.45
3748;BME280;1889;50.058;8.688;2023-04-10T12:53:04;100397.48;;;20.82;27.32
3748;BME280;1889;50.058;8.688;2023-04-10T12:55:37;100397.48;;;20.82;27.32
3748;BME280;1889;50.058;8.688;2023-04-10T12:58:16;100397.02;;;20.83;26.56
3748;BME280;1889;50.058;8.688;2023-04-10T13:00:47;100395.57;;;21.00;26.70
3748;BME280;1889;50.058;8.688;2023-04-10T13:03:16;100377.02;;;21.13;26.43
3748;BME280;1889;50.058;8.688;2023-04-10T13:05:45;100383.64;;;21.30;25.68
3748;BME280;1889;50.058;8.688;2023-04-10T13:08:14;100373.58;;;21.26;25.54
3748;BME280;1889;50.058;8.688;2023-04-10T13:10:43;100360.94;;;21.44;25.82
3748;BME280;1889;50.058;8.688;2023-04-10T13:13:13;100368.75;;;21.17;25.72
3748;BME280;1889;50.058;8.688;2023-04-10T13:15:42;100364.81;;;21.16;25.67
3748;BME280;1889;50.058;8.688;2023-04-10T13:18:12;100354.55;;;21.24;26.22
3748;BME280;1889;50.058;8.688;2023-04-10T13:20:41;100350.31;;;21.20;25.22
3748;BME280;1889;50.058;8.688;2023-04-10T13:23:10;100349.08;;;21.10;24.42
3748;BME280;1889;50.058;8.688;2023-04-10T13:25:39;100347.21;;;21.35;24.45
3748;BME280;1889;50.058;8.688;2023-04-10T13:28:09;100335.72;;;21.32;23.96
3748;BME280;1889;50.058;8.688;2023-04-10T13:30:40;100338.04;;;21.16;24.26
3748;BME280;1889;50.058;8.688;2023-04-10T13:33:09;100339.48;;;21.37;24.46
3748;BME280;1889;50.058;8.688;2023-04-10T13:35:39;100350.05;;;21.47;23.97
3748;BME280;1889;50.058;8.688;2023-04-10T13:38:08;100335.81;;;21.54;24.02
3748;BME280;1889;50.058;8.688;2023-04-10T13:40:38;100338.09;;;21.46;24.01
3748;BME280;1889;50.058;8.688;2023-04-10T13:43:07;100320.69;;;21.07;25.10
3748;BME280;1889;50.058;8.688;2023-04-10T13:45:36;100317.61;;;21.45;25.15
3748;BME280;1889;50.058;8.688;2023-04-10T13:48:05;100320.59;;;21.47;25.62
3748;BME280;1889;50.058;8.688;2023-04-10T13:50:35;100312.68;;;21.67;24.64
3748;BME280;1889;50.058;8.688;2023-04-10T13:53:04;100317.22;;;21.81;24.55
3748;BME280;1889;50.058;8.688;2023-04-10T13:55:34;100308.89;;;21.85;24.31